Time;durP1;ratioP1;P1;durP2;ratioP2;P2;SDS_P1;SDS_P2;PMS_P1;PMS_P2;Temp;Humidity;BMP_temperature;BMP_pressure;BME280_temperature;BME280_humidity;BME280_pressure;Samples;Min_cycle;Max_cycle;Signal;HPM_P1;HPM_P2
2021/12/24 00:00:19;;;;;;;6.26;4.28;;;;;;;6.91;82.41;98727.78;1980221;79;22715;-75
2021/12/24 00:03:22;;;;;;;6.25;4.53;;;;;;;6.90;82.41;98720.91;1982475;81;20454;-75
2021/12/24 00:06:25;;;;;;;7.49;4.85;;;;;;;6.91;82.45;98717.47;1982550;81;20446;-75
2021/12/24 00:09:32;;;;;;;6.28;4.68;;;;;;;6.92;82.41;98711.44;1982007;81;20333;-75
2021/12/24 00:12:38;;;;;;;8.09;4.78;;;;;;;6.92;82.35;98717.47;1984728;81;20857;-75
2021/12/24 00:15:52;;;;;;;6.35;4.75;;;;;;;6.89;82.46;98717.47;1980484;78;20576;-75
2021/12/24 00:35:34;;;;;;;5.91;4.84;;;;;;;7.05;82.90;98701.97;2018812;71;20331;-77
2021/12/24 00:38:36;;;;;;;6.01;4.45;;;;;;;7.07;82.69;98701.09;1987759;81;20332;-76
2021/12/24 00:41:39;;;;;;;7.00;5.11;;;;;;;7.09;82.79;98698.50;1988108;81;21149;-76
2021/12/24 00:44:42;;;;;;;8.77;5.11;;;;;;;7.11;82.73;98696.78;1988163;81;20347;-77
2021/12/24 00:47:46;;;;;;;7.31;4.75;;;;;;;7.11;82.71;98687.31;1986777;79;21478;-76
2021/12/24 00:57:23;;;;;;;5.39;4.55;;;;;;;7.15;82.60;98690.75;1988531;81;20432;-76
2021/12/24 01:00:36;;;;;;;5.79;4.39;;;;;;;7.17;82.57;98687.28;1986595;79;22712;-77
2021/12/24 01:03:39;;;;;;;5.84;4.61;;;;;;;7.22;82.36;98692.47;1988073;81;20328;-77
2021/12/24 01:06:41;;;;;;;6.59;4.71;;;;;;;7.23;82.27;98691.59;1990335;81;20403;-76
2021/12/24 01:09:44;;;;;;;7.38;5.20;;;;;;;7.21;82.22;98693.34;1984617;81;20433;-76
2021/12/24 01:12:47;;;;;;;6.61;4.71;;;;;;;7.22;82.29;98687.31;1986973;81;20339;-76
2021/12/24 01:15:53;;;;;;;6.46;4.47;;;;;;;7.23;82.36;98682.13;1982460;79;20956;-77
2021/12/24 01:19:03;;;;;;;5.78;4.31;;;;;;;7.25;82.60;98682.13;1989028;81;20453;-77
2021/12/24 01:22:43;;;;;;;6.11;4.30;;;;;;;7.25;83.22;98685.56;1988887;81;20357;-76
2021/12/24 01:30:03;;;;;;;5.31;4.07;;;;;;;7.16;84.73;98684.72;1985718;81;20362;-76
2021/12/24 01:39:20;;;;;;;3.95;3.40;;;;;;;7.08;87.55;98678.72;1988962;81;20327;-76
2021/12/24 01:45:50;;;;;;;6.39;4.16;;;;;;;7.00;88.42;98672.69;1987061;79;21681;-76
2021/12/24 01:48:52;;;;;;;4.32;3.60;;;;;;;6.97;89.21;98666.69;1988663;81;20381;-76
2021/12/24 01:51:57;;;;;;;4.51;3.54;;;;;;;6.97;89.91;98663.25;1989060;81;20225;-76
2021/12/24 01:55:00;;;;;;;4.63;4.21;;;;;;;6.98;90.42;98657.22;1989084;81;20410;-76
2021/12/24 01:58:04;;;;;;;5.84;4.31;;;;;;;6.96;90.72;98654.66;1988845;81;20355;-76
2021/12/24 02:01:07;;;;;;;5.63;3.61;;;;;;;6.95;91.09;98652.06;1983888;79;21193;-76
2021/12/24 02:04:11;;;;;;;4.20;3.80;;;;;;;6.94;91.55;98655.53;1989026;81;20335;-76
2021/12/24 02:07:14;;;;;;;5.61;3.46;;;;;;;6.97;92.04;98660.66;1989078;81;20380;-76
2021/12/24 02:10:18;;;;;;;7.29;4.19;;;;;;;6.99;92.02;98671.84;1988873;81;21359;-76
2021/12/24 02:13:22;;;;;;;4.13;3.69;;;;;;;7.00;91.91;98665.81;1989609;81;20649;-76
2021/12/24 02:30:11;;;;;;;5.10;3.96;;;;;;;6.92;91.93;98636.59;1988801;81;20365;-76
2021/12/24 02:33:14;;;;;;;4.49;3.86;;;;;;;6.91;92.16;98628.00;1989033;79;23812;-76
2021/12/24 02:36:18;;;;;;;6.47;4.28;;;;;;;6.92;92.19;98615.97;1991179;81;20343;-76
2021/12/24 02:39:21;;;;;;;5.71;3.94;;;;;;;6.93;92.21;98609.94;1985722;81;20348;-76
2021/12/24 02:42:24;;;;;;;4.47;4.03;;;;;;;6.95;92.28;98608.19;1990111;81;20367;-77
2021/12/24 02:45:29;;;;;;;5.46;3.46;;;;;;;6.96;92.25;98602.19;1988155;79;20845;-76
2021/12/24 02:55:16;;;;;;;6.18;4.14;;;;;;;6.93;92.09;98589.28;1990507;81;20328;-77
2021/12/24 02:58:19;;;;;;;4.09;3.45;;;;;;;6.93;92.12;98597.88;1989961;81;20801;-76
2021/12/24 03:01:27;;;;;;;6.55;4.31;;;;;;;6.92;92.23;98596.16;1988667;78;23532;-76
2021/12/24 03:04:30;;;;;;;6.45;3.91;;;;;;;6.93;92.34;98590.16;1990891;81;20356;-76
2021/12/24 03:07:32;;;;;;;3.80;3.39;;;;;;;6.95;92.38;98587.56;1991779;81;20374;-76
2021/12/24 03:10:36;;;;;;;5.71;4.05;;;;;;;6.96;92.42;98590.13;1991759;81;20442;-76
2021/12/24 03:13:41;;;;;;;6.20;4.01;;;;;;;6.98;92.43;98592.72;1991669;81;20327;-77
2021/12/24 03:16:49;;;;;;;4.95;3.86;;;;;;;6.97;92.46;98571.19;1989413;79;20377;-76
2021/12/24 03:19:55;;;;;;;4.50;4.07;;;;;;;7.00;92.41;98575.50;1991460;81;20797;-76
2021/12/24 03:23:10;;;;;;;5.26;3.53;;;;;;;7.02;92.27;98567.78;1991170;81;20180;-76
2021/12/24 03:26:15;;;;;;;4.57;3.45;;;;;;;7.00;92.21;98556.56;1991381;81;20324;-76
2021/12/24 03:29:18;;;;;;;4.93;3.80;;;;;;;7.01;92.17;98558.31;1990069;81;21203;-76
2021/12/24 03:32:21;;;;;;;5.70;4.05;;;;;;;7.03;92.12;98570.34;1989168;79;20949;-76
2021/12/24 03:35:25;;;;;;;4.50;3.99;;;;;;;7.03;91.97;98575.50;1991179;81;20389;-76
2021/12/24 03:38:28;;;;;;;4.94;3.67;;;;;;;7.04;91.87;98563.47;1990761;81;20332;-76
2021/12/24 03:41:30;;;;;;;4.40;3.65;;;;;;;7.06;91.93;98561.72;1988022;81;20383;-76
2021/12/24 03:44:39;;;;;;;5.84;3.65;;;;;;;7.05;91.64;98560.00;1990231;81;20511;-76
2021/12/24 03:47:47;;;;;;;;;;;;;;;7.06;91.76;98559.16;1990682;79;21462;-76
2021/12/24 03:51:17;;;;;;;4.40;3.35;;;;;;;7.06;91.75;98560.00;1990737;81;20080;-76
2021/12/24 03:57:42;;;;;;;5.21;3.56;;;;;;;7.07;91.67;98568.59;1991162;81;20351;-76
2021/12/24 04:00:44;;;;;;;4.14;3.50;;;;;;;7.07;91.81;98558.28;1990041;79;21059;-76
2021/12/24 04:03:47;;;;;;;5.04;3.65;;;;;;;7.07;91.80;98553.97;1989578;81;20785;-76
2021/12/24 04:06:50;;;;;;;3.80;3.35;;;;;;;7.12;91.91;98553.94;1990209;81;20320;-76
2021/12/24 04:10:02;;;;;;;4.76;3.50;;;;;;;7.15;92.00;98552.19;1989664;81;20339;-76
2021/12/24 04:13:05;;;;;;;3.86;3.44;;;;;;;7.19;91.88;98547.91;1985513;81;20359;-76
2021/12/24 04:16:09;;;;;;;4.44;3.65;;;;;;;7.21;91.71;98548.75;1988693;79;22137;-76
2021/12/24 04:25:35;;;;;;;3.42;3.11;;;;;;;7.20;91.29;98542.75;1989809;81;20884;-76
2021/12/24 04:28:38;;;;;;;3.40;3.15;;;;;;;7.17;91.05;98540.16;1986176;81;20324;-76
2021/12/24 04:31:52;;;;;;;4.64;3.44;;;;;;;7.20;91.20;98536.72;1987969;79;22754;-77
2021/12/24 04:35:14;;;;;;;4.16;2.58;;;;;;;7.23;91.20;98534.13;1989510;81;20753;-76
2021/12/24 04:51:46;;;;;;;3.78;2.99;;;;;;;7.20;90.88;98540.16;1989607;81;20410;-76
2021/12/24 05:01:48;;;;;;;5.60;2.92;;;;;;;7.19;90.62;98540.16;1988449;79;21685;-77
2021/12/24 05:05:00;;;;;;;;;;;;;;;7.16;90.63;98538.44;1990245;81;20316;-76
2021/12/24 05:11:17;;;;;;;3.81;3.13;;;;;;;7.12;90.80;98523.81;1989456;81;20180;-76
2021/12/24 05:14:19;;;;;;;5.00;3.17;;;;;;;7.14;90.85;98526.41;1989898;81;20348;-76
2021/12/24 05:17:30;;;;;;;4.64;2.71;;;;;;;7.11;90.73;98529.00;1987402;81;22403;-76
2021/12/24 05:23:54;;;;;;;4.06;2.76;;;;;;;7.09;90.77;98535.91;1989738;81;20403;-76
2021/12/24 05:27:00;;;;;;;4.05;2.75;;;;;;;7.11;90.83;98532.44;1989616;81;20352;-77
2021/12/24 05:30:04;;;;;;;3.22;2.66;;;;;;;7.12;90.81;98541.03;1988487;81;20848;-76
2021/12/24 05:33:12;;;;;;;3.56;2.54;;;;;;;7.15;90.73;98528.13;1989028;79;20547;-77
2021/12/24 05:36:14;;;;;;;4.34;2.46;;;;;;;7.16;90.58;98522.09;1988513;81;20414;-77
2021/12/24 05:39:18;;;;;;;3.26;2.96;;;;;;;7.16;90.44;98520.34;1989653;81;20387;-77
2021/12/24 05:42:22;;;;;;;2.65;2.44;;;;;;;7.19;90.41;98522.09;1989666;81;20845;-77
2021/12/24 05:45:25;;;;;;;3.05;2.42;;;;;;;7.19;90.27;98528.13;1986926;79;21364;-77
2021/12/24 05:48:28;;;;;;;4.53;2.88;;;;;;;7.20;90.12;98521.22;1989506;81;20432;-77
2021/12/24 05:51:33;;;;;;;3.13;2.55;;;;;;;7.16;nan;98528.09;1989435;81;20403;-76
2021/12/24 05:54:35;;;;;;;4.32;3.34;;;;;;;7.15;90.04;98531.56;1992709;81;20425;-77
2021/12/24 05:57:38;;;;;;;5.32;3.33;;;;;;;7.19;nan;98535.00;1990592;81;20371;-76
2021/12/24 06:00:43;;;;;;;4.04;3.30;;;;;;;7.18;89.87;98530.69;1987794;79;21189;-76
2021/12/24 06:03:46;;;;;;;4.68;3.05;;;;;;;7.17;89.74;98537.56;1989667;81;20312;-76
2021/12/24 06:06:48;;;;;;;5.24;3.06;;;;;;;7.16;89.86;98537.56;1989343;81;20359;-76
2021/12/24 06:09:51;;;;;;;4.15;3.11;;;;;;;7.12;89.79;98549.66;1989056;81;20885;-77
2021/12/24 06:12:54;;;;;;;4.34;3.08;;;;;;;7.06;89.81;98553.97;1988370;81;20346;-76
2021/12/24 06:15:56;;;;;;;3.90;3.25;;;;;;;7.03;90.13;98554.84;1987347;79;22333;-77
2021/12/24 06:19:01;;;;;;;3.16;2.70;;;;;;;7.06;90.37;98548.81;1989378;81;20430;-76
2021/12/24 06:22:04;;;;;;;4.61;2.75;;;;;;;7.07;90.36;98559.13;1988740;81;20353;-77
2021/12/24 06:25:07;;;;;;;4.55;3.35;;;;;;;7.05;90.22;98550.53;1990017;81;20402;-77
2021/12/24 06:28:09;;;;;;;2.74;2.51;;;;;;;7.03;90.28;98538.50;1989006;81;20399;-77
2021/12/24 06:31:12;;;;;;;3.55;3.22;;;;;;;6.98;90.33;98535.94;1987759;79;22612;-77
2021/12/24 06:34:15;;;;;;;4.69;3.34;;;;;;;7.01;90.83;98542.81;1988717;81;20425;-77
2021/12/24 06:37:18;;;;;;;4.70;3.38;;;;;;;7.05;91.10;98544.53;1989421;81;20359;-76
2021/12/24 06:40:21;;;;;;;3.36;3.06;;;;;;;7.06;91.17;98546.25;1989143;81;20368;-76
2021/12/24 06:43:24;;;;;;;3.76;3.06;;;;;;;7.07;91.20;98543.66;1989141;81;21210;-76
2021/12/24 06:46:27;;;;;;;4.94;3.45;;;;;;;7.04;91.25;98543.66;1987365;80;21330;-76
2021/12/24 06:49:30;;;;;;;4.22;3.04;;;;;;;7.03;91.41;98546.25;1989195;81;20359;-76
2021/12/24 06:52:33;;;;;;;4.51;3.74;;;;;;;7.01;91.71;98542.81;1988328;81;20324;-76
2021/12/24 06:55:36;;;;;;;4.24;3.35;;;;;;;6.98;91.86;98538.50;1989519;81;20408;-77
2021/12/24 06:58:39;;;;;;;5.18;3.67;;;;;;;6.97;92.06;98541.97;1989236;81;20312;-76
2021/12/24 07:01:41;;;;;;;4.86;3.29;;;;;;;6.93;92.22;98542.84;1984353;79;20883;-77
2021/12/24 07:04:44;;;;;;;5.44;3.72;;;;;;;6.91;92.47;98542.00;1988909;81;20529;-77
2021/12/24 07:07:47;;;;;;;5.19;3.80;;;;;;;6.92;92.84;98530.81;1990276;81;20373;-77
2021/12/24 07:10:51;;;;;;;4.57;3.88;;;;;;;6.93;93.07;98535.09;1991116;81;21238;-77
2021/12/24 07:13:53;;;;;;;5.66;4.91;;;;;;;6.93;93.13;98535.94;1990257;81;20792;-77
2021/12/24 07:16:56;;;;;;;5.21;4.40;;;;;;;6.92;93.08;98536.81;1988031;79;22821;-77
2021/12/24 07:19:59;;;;;;;6.81;5.29;;;;;;;6.94;93.09;98529.06;1989822;81;20381;-76
2021/12/24 07:23:01;;;;;;;6.29;4.45;;;;;;;6.89;93.11;98526.50;1989082;81;20360;-75
2021/12/24 07:26:04;;;;;;;6.35;5.07;;;;;;;6.87;93.23;98524.81;1988825;81;20352;-75
2021/12/24 07:29:06;;;;;;;6.74;5.18;;;;;;;6.86;93.52;98521.38;1988488;81;20349;-75
2021/12/24 07:32:09;;;;;;;9.29;4.78;;;;;;;6.85;93.55;98521.38;1987137;79;23147;-75
2021/12/24 07:35:12;;;;;;;6.61;4.97;;;;;;;6.82;93.60;98526.53;1989498;81;20360;-75
2021/12/24 07:38:14;;;;;;;5.47;4.96;;;;;;;6.77;93.82;98533.44;1989422;81;20323;-76
2021/12/24 07:41:18;;;;;;;6.70;4.60;;;;;;;6.74;94.16;98538.59;1993161;81;20434;-76
2021/12/24 07:44:21;;;;;;;6.78;4.99;;;;;;;6.71;94.37;98539.47;1989868;81;20324;-77
2021/12/24 07:47:28;;;;;;;8.06;4.95;;;;;;;6.70;94.66;98531.75;1988732;79;27342;-76
2021/12/24 07:53:33;;;;;;;6.21;5.28;;;;;;;6.68;94.87;98541.22;1989355;81;20348;-76
2021/12/24 07:56:36;;;;;;;8.02;5.70;;;;;;;6.66;95.01;98547.22;1989865;81;20395;-75
2021/12/24 07:59:40;;;;;;;7.45;5.22;;;;;;;6.63;95.01;98542.06;1989972;81;20403;-76
2021/12/24 08:02:43;;;;;;;5.36;4.85;;;;;;;6.61;95.27;98541.19;1989233;79;21499;-78
2021/12/24 08:05:48;;;;;;;7.57;5.30;;;;;;;6.61;95.46;98537.75;1990171;81;20348;-76
2021/12/24 08:08:51;;;;;;;7.22;5.47;;;;;;;6.59;95.46;98530.03;1990157;81;20885;-76
2021/12/24 08:11:53;;;;;;;6.50;4.75;;;;;;;6.61;95.63;98537.75;1985971;81;20418;-77
2021/12/24 08:14:56;;;;;;;7.79;5.64;;;;;;;6.58;95.58;98546.38;1989661;81;20410;-79
2021/12/24 08:17:59;;;;;;;7.21;5.59;;;;;;;6.55;95.81;98543.81;1989452;79;23809;-77
2021/12/24 08:21:01;;;;;;;9.02;6.21;;;;;;;6.56;96.04;98536.94;1991226;81;20332;-79
2021/12/24 08:24:04;;;;;;;11.14;6.89;;;;;;;6.56;96.25;98524.03;1992284;81;20344;-79
2021/12/24 08:27:08;;;;;;;22.10;9.02;;;;;;;6.59;96.49;98517.13;1992460;81;20518;-79
2021/12/24 08:30:11;;;;;;;27.81;10.99;;;;;;;6.61;96.59;98514.56;1990548;81;20363;-80
2021/12/24 08:33:15;;;;;;;21.44;9.48;;;;;;;6.64;96.89;98510.28;1992593;79;29349;-79
2021/12/24 08:36:18;;;;;;;16.19;8.09;;;;;;;6.68;97.15;98510.25;1992168;81;20335;-79
2021/12/24 08:39:22;;;;;;;14.75;7.68;;;;;;;6.72;97.36;98509.38;1991187;81;20324;-79
2021/12/24 08:42:24;;;;;;;15.35;8.00;;;;;;;6.75;97.61;98512.78;1991806;81;20885;-79
2021/12/24 08:45:27;;;;;;;16.56;8.21;;;;;;;6.77;97.68;98515.38;1989221;79;20450;-76
2021/12/24 08:48:30;;;;;;;18.60;8.25;;;;;;;6.79;97.56;98517.06;1989001;81;20357;-78
2021/12/24 08:51:33;;;;;;;10.98;6.86;;;;;;;6.79;97.54;98514.50;2003149;71;20462;-78
2021/12/24 08:54:35;;;;;;;12.55;6.60;;;;;;;6.83;97.75;98515.38;1983746;82;20409;-77
2021/12/24 08:57:39;;;;;;;14.24;7.79;;;;;;;6.86;97.83;98515.34;1982564;81;20417;-76
2021/12/24 09:00:42;;;;;;;9.98;6.80;;;;;;;6.88;98.06;98513.63;1980783;79;20711;-76
2021/12/24 09:03:45;;;;;;;8.13;6.00;;;;;;;6.90;98.14;98517.03;1982003;82;20356;-76
2021/12/24 09:06:47;;;;;;;9.04;6.50;;;;;;;6.91;98.07;98511.03;1982417;82;20873;-76
2021/12/24 09:09:50;;;;;;;11.30;6.76;;;;;;;6.93;98.04;98512.72;1983309;81;20485;-76
2021/12/24 09:12:53;;;;;;;8.51;6.26;;;;;;;6.94;98.18;98503.25;1981188;82;20325;-76
2021/12/24 09:15:55;;;;;;;11.21;6.90;;;;;;;6.95;98.31;98490.34;1981114;80;26425;-76
2021/12/24 09:19:06;;;;;;;10.73;6.66;;;;;;;6.96;98.35;98492.06;1982213;82;21034;-75
2021/12/24 09:22:08;;;;;;;12.11;7.82;;;;;;;6.98;98.36;98504.97;1981290;81;20368;-76
2021/12/24 09:25:11;;;;;;;9.24;7.18;;;;;;;7.00;98.39;98510.97;1984900;81;21287;-76
2021/12/24 09:28:14;;;;;;;12.01;7.56;;;;;;;7.00;98.41;98507.53;1982498;82;20345;-76
2021/12/24 09:31:16;;;;;;;10.93;6.95;;;;;;;7.00;98.42;98504.94;1980723;80;20700;-76
2021/12/24 09:34:19;;;;;;;11.00;6.63;;;;;;;7.02;98.51;98503.25;1981933;82;20902;-76
2021/12/24 09:37:22;;;;;;;11.66;9.25;;;;;;;7.03;98.45;98492.91;1982531;81;20333;-75
2021/12/24 09:40:26;;;;;;;11.51;8.21;;;;;;;7.04;98.38;98499.78;1979343;82;21303;-76
2021/12/24 09:43:28;;;;;;;11.65;7.81;;;;;;;7.06;98.59;98484.28;1982261;81;20332;-76
2021/12/24 09:46:31;;;;;;;11.34;7.32;;;;;;;7.09;98.61;98502.34;1981387;79;22159;-76
2021/12/24 09:49:34;;;;;;;12.70;9.10;;;;;;;7.10;98.64;98489.44;1982957;82;20388;-76
2021/12/24 09:52:39;;;;;;;10.84;7.65;;;;;;;7.13;98.54;98499.72;1983586;81;20336;-76
2021/12/24 09:55:41;;;;;;;8.94;7.54;;;;;;;7.12;98.42;98492.00;1983275;81;20757;-76
2021/12/24 09:58:44;;;;;;;8.59;6.85;;;;;;;7.12;98.59;98498.00;1982303;82;21018;-76
2021/12/24 10:01:58;;;;;;;10.21;7.04;;;;;;;7.12;98.78;98508.34;1979410;79;29258;-76
2021/12/24 10:05:01;;;;;;;10.70;7.19;;;;;;;7.14;98.90;98498.88;1981689;82;20387;-76
2021/12/24 10:08:24;;;;;;;9.05;7.04;;;;;;;7.16;98.88;98491.09;1981515;82;20350;-76
2021/12/24 10:11:29;;;;;;;9.29;7.11;;;;;;;7.18;98.88;98492.84;1981379;82;20830;-76
2021/12/24 10:14:39;;;;;;;7.97;6.00;;;;;;;7.20;98.94;98488.53;1981953;82;20328;-76
2021/12/24 10:17:43;;;;;;;6.89;6.07;;;;;;;7.22;98.94;98489.38;1979474;81;20764;-76
2021/12/24 10:20:59;;;;;;;8.19;6.47;;;;;;;7.26;99.03;98483.31;1982376;82;20378;-76
2021/12/24 10:24:04;;;;;;;8.84;6.68;;;;;;;7.31;99.08;98478.13;1981728;82;20394;-76
2021/12/24 10:27:06;;;;;;;7.41;5.75;;;;;;;7.35;99.03;98476.38;1981125;82;20420;-75
2021/12/24 10:30:21;;;;;;;6.85;5.76;;;;;;;7.40;99.04;98477.22;1979711;82;20345;-76
2021/12/24 10:33:24;;;;;;;7.45;5.57;;;;;;;7.45;98.99;98480.63;1981381;82;20340;-76
2021/12/24 10:36:27;;;;;;;6.93;5.07;;;;;;;7.49;98.91;98478.00;1981608;81;20435;-76
2021/12/24 10:39:46;;;;;;;6.63;4.35;;;;;;;7.53;98.93;98471.94;1981525;82;20337;-76
2021/12/24 10:42:50;;;;;;;6.09;4.64;;;;;;;7.57;99.04;98455.56;1983456;81;20451;-76
2021/12/24 10:46:27;;;;;;;6.10;4.20;;;;;;;7.67;99.11;98442.56;1982146;79;20757;-76
2021/12/24 10:55:54;;;;;;;4.45;3.70;;;;;;;7.85;98.94;98442.41;1984028;82;20412;-76
2021/12/24 10:58:57;;;;;;;4.00;3.31;;;;;;;7.90;99.14;98440.66;1983593;81;20999;-76
2021/12/24 11:02:09;;;;;;;5.85;3.44;;;;;;;7.96;99.02;98435.44;1981809;79;21003;-76
2021/12/24 11:05:33;;;;;;;3.39;3.09;;;;;;;8.01;98.65;98445.72;1983586;81;20370;-76
2021/12/24 11:08:37;;;;;;;3.46;3.03;;;;;;;8.03;98.62;98442.25;1983284;81;20419;-76
2021/12/24 11:11:43;;;;;;;3.41;3.11;;;;;;;8.05;98.33;98440.50;1983494;82;20336;-76
2021/12/24 11:14:45;;;;;;;3.54;3.24;;;;;;;8.07;98.25;98443.91;1983608;81;20321;-76
2021/12/24 11:17:50;;;;;;;4.31;3.16;;;;;;;8.09;98.02;98429.28;1982338;79;21143;-76
2021/12/24 11:21:15;;;;;;;4.76;3.25;;;;;;;8.09;97.92;98425.84;1982941;81;20309;-76
2021/12/24 11:24:18;;;;;;;3.69;3.28;;;;;;;8.12;97.95;98423.22;1983030;81;20357;-76
2021/12/24 11:27:21;;;;;;;4.82;3.46;;;;;;;8.14;97.99;98429.22;1982735;81;20348;-76
2021/12/24 11:30:25;;;;;;;3.71;3.21;;;;;;;8.15;98.00;98425.75;1979006;81;21397;-76
2021/12/24 11:33:31;;;;;;;4.29;3.89;;;;;;;8.15;97.75;98421.44;1982703;82;20553;-78
2021/12/24 11:36:33;;;;;;;3.80;3.47;;;;;;;8.15;97.81;98412.84;1984006;81;20395;-76
2021/12/24 11:39:36;;;;;;;5.35;3.76;;;;;;;8.14;97.86;98405.94;1982627;81;20347;-76
2021/12/24 11:42:40;;;;;;;5.78;4.43;;;;;;;8.14;98.11;98406.81;1978802;82;20400;-76
2021/12/24 11:45:43;;;;;;;6.29;4.04;;;;;;;8.13;98.03;98392.16;1981944;79;21210;-76
2021/12/24 11:48:50;;;;;;;7.06;4.18;;;;;;;8.12;98.14;98397.34;1982442;82;20886;-76
2021/12/24 11:51:53;;;;;;;5.32;3.85;;;;;;;8.13;98.47;98401.66;1982769;82;20347;-76
2021/12/24 11:54:58;;;;;;;4.43;3.92;;;;;;;8.13;98.67;98397.34;1985500;82;20336;-76
2021/12/24 11:58:05;;;;;;;4.95;3.49;;;;;;;8.16;98.67;98396.44;1983366;81;21399;-77
2021/12/24 12:01:08;;;;;;;5.29;3.42;;;;;;;8.19;98.67;98399.00;1982077;79;21675;-76
2021/12/24 12:04:23;;;;;;;3.78;3.06;;;;;;;8.22;98.67;98395.50;1983660;81;20384;-76
2021/12/24 12:07:25;;;;;;;4.30;2.97;;;;;;;8.25;98.51;98396.31;1982734;82;20341;-76
2021/12/24 12:10:51;;;;;;;2.60;2.40;;;;;;;8.28;98.25;98391.16;1982211;81;20364;-77
2021/12/24 12:14:24;;;;;;;2.97;2.67;;;;;;;8.32;98.25;98377.31;1983718;81;20408;-77
2021/12/24 12:17:26;;;;;;;2.34;2.14;;;;;;;8.37;98.06;98374.69;1982644;80;21623;-77
2021/12/24 12:20:46;;;;;;;2.46;2.26;;;;;;;8.40;97.87;98370.31;1983296;81;20342;-77
2021/12/24 12:27:01;;;;;;;2.41;1.90;;;;;;;8.51;97.73;98359.84;1983680;82;20313;-77
2021/12/24 12:30:22;;;;;;;2.36;2.11;;;;;;;8.54;97.43;98351.19;1982868;82;20317;-77
2021/12/24 12:33:35;;;;;;;2.36;2.16;;;;;;;8.59;97.49;98352.84;1984480;81;20361;-77
2021/12/24 12:36:40;;;;;;;2.50;2.26;;;;;;;8.65;97.34;98344.16;1983918;81;20355;-77
2021/12/24 12:39:45;;;;;;;2.41;1.96;;;;;;;8.67;96.98;98338.06;1983548;81;20340;-77
2021/12/24 12:42:56;;;;;;;2.29;1.73;;;;;;;8.67;96.86;98338.06;1984103;81;20406;-77
2021/12/24 12:46:02;;;;;;;2.13;2.03;;;;;;;8.69;96.85;98338.06;1983614;79;22851;-77
2021/12/24 12:49:07;;;;;;;1.83;1.66;;;;;;;8.70;96.71;98329.41;1984248;81;20997;-77
2021/12/24 12:52:32;;;;;;;2.74;1.83;;;;;;;8.71;96.71;98328.53;1983139;81;20329;-77
2021/12/24 12:55:36;;;;;;;3.45;1.67;;;;;;;8.76;96.70;98316.38;1982835;81;20370;-78
2021/12/24 12:58:41;;;;;;;1.69;1.59;;;;;;;8.80;96.73;98305.13;1983590;81;20348;-78
2021/12/24 13:01:52;;;;;;;2.21;1.56;;;;;;;8.82;96.49;98312.88;1982513;79;20350;-78
2021/12/24 13:05:13;;;;;;;4.01;1.74;;;;;;;8.90;96.58;98311.00;1979392;82;20366;-77
2021/12/24 13:08:21;;;;;;;1.54;1.41;;;;;;;8.96;96.74;98298.81;1983531;82;20387;-77
2021/12/24 13:11:23;;;;;;;2.54;1.70;;;;;;;9.05;96.60;98308.19;1983281;81;20335;-78
2021/12/24 13:14:28;;;;;;;1.73;1.59;;;;;;;9.08;96.42;98301.22;1983677;81;20319;-77
2021/12/24 13:17:32;;;;;;;1.83;1.70;;;;;;;9.12;96.26;98301.16;1981594;79;21302;-77
2021/12/24 13:23:57;;;;;;;1.64;1.44;;;;;;;9.10;95.55;98308.97;1980405;82;20435;-77
2021/12/24 13:27:03;;;;;;;1.52;1.42;;;;;;;9.09;95.40;98310.69;1983009;81;20200;-77
2021/12/24 13:30:12;;;;;;;1.86;1.41;;;;;;;9.05;95.28;98303.84;1981166;81;20367;-77
2021/12/24 13:33:18;;;;;;;1.73;1.63;;;;;;;9.01;95.11;98296.16;1982307;79;21697;-77
2021/12/24 13:36:23;;;;;;;1.98;1.35;;;;;;;9.01;95.17;98299.63;1982766;82;20201;-78
2021/12/24 13:39:26;;;;;;;2.14;1.30;;;;;;;8.98;95.12;98293.63;1983181;81;20345;-77
2021/12/24 13:42:28;;;;;;;1.31;1.21;;;;;;;8.99;95.00;98296.19;1982000;82;20369;-77
2021/12/24 13:45:35;;;;;;;1.42;1.33;;;;;;;8.98;95.08;98304.00;1982000;79;21915;-77
2021/12/24 13:49:13;;;;;;;1.90;1.80;;;;;;;8.94;95.01;98291.94;1983900;82;20718;-77
2021/12/24 13:55:35;;;;;;;1.60;1.40;;;;;;;8.87;95.29;98298.97;1982392;82;20974;-77
2021/12/24 13:58:38;;;;;;;1.81;1.71;;;;;;;8.79;95.62;98299.06;1982547;82;20364;-77
2021/12/24 14:01:42;;;;;;;2.79;1.63;;;;;;;8.79;95.89;98298.22;1981040;79;26986;-77
2021/12/24 14:04:45;;;;;;;2.01;1.81;;;;;;;8.77;95.92;98303.41;1983327;82;20329;-76
2021/12/24 14:08:30;;;;;;;1.94;1.74;;;;;;;8.75;96.15;98300.00;1982844;82;21281;-76
2021/12/24 14:11:36;;;;;;;2.22;2.04;;;;;;;8.73;96.26;98299.16;1962183;82;20465;-76
2021/12/24 14:18:04;;;;;;;2.67;2.16;;;;;;;8.71;96.54;98305.25;1959248;82;21625;-76
2021/12/24 14:24:36;;;;;;;2.70;2.50;;;;;;;8.63;96.78;98295.00;1960659;82;20333;-76
2021/12/24 14:27:40;;;;;;;2.25;2.15;;;;;;;8.60;96.81;98295.03;1957215;82;21116;-76
2021/12/24 14:30:46;;;;;;;2.56;2.36;;;;;;;8.54;97.00;98289.97;1958524;80;22726;-76
2021/12/24 14:33:49;;;;;;;3.10;2.90;;;;;;;8.50;97.28;98284.84;1961206;82;20729;-77
2021/12/24 14:36:57;;;;;;;2.92;2.72;;;;;;;8.50;97.45;98285.72;1960854;82;20402;-77
2021/12/24 14:40:06;;;;;;;3.09;2.89;;;;;;;8.51;97.44;98282.25;1961428;82;20966;-75
2021/12/24 14:43:13;;;;;;;3.15;2.89;;;;;;;8.46;97.37;98274.56;1973829;82;20383;-76
2021/12/24 14:46:16;;;;;;;3.34;3.04;;;;;;;8.44;97.67;98278.91;1980050;79;20393;-77
2021/12/24 14:49:19;;;;;;;7.66;5.95;;;;;;;8.43;97.71;98274.56;1981996;81;20372;-76
2021/12/24 14:52:24;;;;;;;4.38;3.97;;;;;;;8.44;97.90;98273.72;1980909;81;20328;-77
2021/12/24 14:55:26;;;;;;;3.71;3.35;;;;;;;8.46;97.87;98271.13;1981897;82;20358;-76
2021/12/24 14:58:31;;;;;;;3.58;3.29;;;;;;;8.45;97.67;98275.44;1981053;81;20352;-77
2021/12/24 15:01:42;;;;;;;4.10;3.72;;;;;;;8.40;97.78;98276.34;1980214;79;21502;-77
2021/12/24 15:04:55;;;;;;;3.56;3.09;;;;;;;8.38;97.95;98275.53;1981922;82;20360;-77
2021/12/24 15:08:00;;;;;;;3.51;3.21;;;;;;;8.36;97.91;98266.94;1979962;82;20459;-77
2021/12/24 15:11:09;;;;;;;3.28;3.08;;;;;;;8.34;97.91;98274.72;1979805;82;20374;-77
2021/12/24 15:14:14;;;;;;;4.09;3.36;;;;;;;8.33;97.81;98278.16;1980377;82;20325;-78
2021/12/24 15:17:17;;;;;;;3.28;2.96;;;;;;;8.32;97.86;98270.41;1979303;79;26478;-77
2021/12/24 15:20:22;;;;;;;3.55;3.35;;;;;;;8.30;97.85;98278.19;1980513;82;20443;-76
2021/12/24 15:23:25;;;;;;;3.60;3.30;;;;;;;8.29;97.88;98275.63;1983158;81;20353;-76
2021/12/24 15:26:28;;;;;;;3.66;3.08;;;;;;;8.24;97.83;98275.66;1976220;82;20399;-76
2021/12/24 15:29:31;;;;;;;3.54;3.24;;;;;;;8.23;97.94;98273.94;1980348;81;21152;-76
2021/12/24 15:32:34;;;;;;;3.61;3.31;;;;;;;8.21;97.96;98275.72;1979182;79;20329;-75
2021/12/24 15:35:37;;;;;;;3.64;3.36;;;;;;;8.22;97.98;98274.84;1980180;81;20337;-76
2021/12/24 15:38:41;;;;;;;3.61;3.35;;;;;;;8.20;97.98;98276.59;1980498;82;20352;-76
2021/12/24 15:41:46;;;;;;;3.55;3.34;;;;;;;8.19;98.12;98272.28;1981260;81;20339;-76
2021/12/24 15:44:50;;;;;;;3.69;3.39;;;;;;;8.18;98.18;98275.75;1982241;81;20341;-76
2021/12/24 15:47:53;;;;;;;3.66;3.38;;;;;;;8.16;98.18;98278.38;1981312;81;28542;-75
2021/12/24 15:50:56;;;;;;;4.36;3.60;;;;;;;8.16;98.28;98280.94;1982588;82;20337;-75
2021/12/24 15:53:59;;;;;;;3.56;3.29;;;;;;;8.16;98.23;98282.69;1982208;81;20415;-76
2021/12/24 15:57:03;;;;;;;3.81;3.51;;;;;;;8.16;98.29;98282.69;1982695;81;20362;-76
2021/12/24 16:00:06;;;;;;;4.01;3.66;;;;;;;8.13;98.28;98272.38;1982470;81;20337;-74
2021/12/24 16:03:10;;;;;;;5.36;4.55;;;;;;;8.12;98.45;98281.00;1982095;79;29544;-74
2021/12/24 16:06:12;;;;;;;4.30;3.71;;;;;;;8.12;98.58;98287.03;1981850;81;20893;-75
2021/12/24 16:09:19;;;;;;;3.81;3.50;;;;;;;8.10;98.58;98282.78;1982735;81;20345;-75
2021/12/24 16:12:22;;;;;;;4.06;3.74;;;;;;;8.07;98.65;98286.22;1983243;81;20884;-75
2021/12/24 16:15:26;;;;;;;4.25;3.90;;;;;;;8.08;98.77;98280.19;1981626;79;23013;-75
2021/12/24 16:18:28;;;;;;;3.59;3.29;;;;;;;8.07;98.78;98283.63;1982751;81;20888;-75
2021/12/24 16:21:31;;;;;;;3.74;3.44;;;;;;;8.08;98.79;98290.53;1981689;81;20486;-74
2021/12/24 16:24:34;;;;;;;4.00;3.70;;;;;;;8.07;98.86;98275.03;1980695;81;20334;-74
2021/12/24 16:27:39;;;;;;;4.00;3.46;;;;;;;8.09;98.93;98273.31;1981261;81;20876;-74
2021/12/24 16:30:42;;;;;;;3.51;3.29;;;;;;;8.08;98.93;98275.03;1980102;79;20762;-74
2021/12/24 16:33:45;;;;;;;4.10;3.78;;;;;;;8.08;98.92;98274.19;1982048;81;20330;-75
2021/12/24 16:36:47;;;;;;;4.01;3.70;;;;;;;8.08;99.06;98269.88;1981080;81;20566;-74
2021/12/24 16:39:50;;;;;;;4.26;3.91;;;;;;;8.07;99.09;98270.72;1981891;81;20325;-75
2021/12/24 16:42:54;;;;;;;4.11;3.75;;;;;;;8.07;99.45;98273.28;1981250;81;20395;-75